createdAt,value
2023-03-12T00:01:23.254Z,30.40
2023-03-12T00:03:52.076Z,28.00
2023-03-12T00:06:21.454Z,29.90
2023-03-12T00:08:49.784Z,28.50
2023-03-12T00:11:21.079Z,30.60
2023-03-12T00:13:55.615Z,31.00
2023-03-12T00:16:24.946Z,30.90
2023-03-12T00:18:55.206Z,29.00
2023-03-12T00:21:23.823Z,31.50
2023-03-12T00:23:53.314Z,27.00
2023-03-12T00:26:21.748Z,32.50
2023-03-12T00:28:50.789Z,30.10
2023-03-12T00:31:29.962Z,31.00
2023-03-12T00:33:58.384Z,28.30
2023-03-12T00:36:30.837Z,30.80
2023-03-12T00:39:00.573Z,30.80
2023-03-12T00:41:30.498Z,29.50
2023-03-12T00:43:58.520Z,30.60
2023-03-12T00:46:26.835Z,29.80
2023-03-12T00:48:54.843Z,30.70
2023-03-12T00:51:23.038Z,31.30
2023-03-12T00:53:51.012Z,30.20
2023-03-12T00:56:18.882Z,28.30
2023-03-12T00:58:46.932Z,27.70
2023-03-12T01:01:15.666Z,28.30
2023-03-12T01:03:43.560Z,30.30
2023-03-12T01:06:11.809Z,27.70
2023-03-12T01:08:39.970Z,28.50
2023-03-12T01:11:07.930Z,30.40
2023-03-12T01:13:35.721Z,28.50
2023-03-12T01:16:03.761Z,25.60
2023-03-12T01:18:31.989Z,28.00
2023-03-12T01:20:59.975Z,25.90
2023-03-12T01:23:28.097Z,23.40
2023-03-12T01:25:56.153Z,21.50
2023-03-12T01:28:25.687Z,24.50
2023-03-12T01:30:53.597Z,26.00
2023-03-12T01:33:23.005Z,25.40
2023-03-12T01:35:51.038Z,21.50
2023-03-12T01:38:20.860Z,24.90
2023-03-12T01:40:48.763Z,22.20
2023-03-12T01:43:38.488Z,22.20
2023-03-12T01:46:29.689Z,24.50
2023-03-12T01:51:59.784Z,27.90
2023-03-12T01:54:57.649Z,24.20
2023-03-12T01:57:37.091Z,25.80
2023-03-12T02:00:13.877Z,24.30
2023-03-12T02:02:44.732Z,24.30
2023-03-12T02:05:35.552Z,27.10
2023-03-12T02:08:03.748Z,23.60
2023-03-12T02:10:31.798Z,24.20
2023-03-12T02:12:59.677Z,22.30
2023-03-12T02:15:27.982Z,25.10
2023-03-12T02:17:55.925Z,21.80
2023-03-12T02:21:01.409Z,25.60
2023-03-12T02:23:38.389Z,24.30
2023-03-12T02:26:08.153Z,22.20
2023-03-12T02:28:43.811Z,22.70
2023-03-12T02:31:20.058Z,21.50
2023-03-12T02:33:48.252Z,22.70
2023-03-12T02:36:16.057Z,20.90
2023-03-12T02:38:49.350Z,24.50
2023-03-12T02:41:29.904Z,19.90
2023-03-12T02:44:14.576Z,22.40
2023-03-12T02:46:47.387Z,20.70
2023-03-12T02:49:18.148Z,25.60
2023-03-12T02:51:48.646Z,17.80
2023-03-12T02:54:19.012Z,25.00
2023-03-12T02:56:48.375Z,20.30
2023-03-12T02:59:20.717Z,25.20
2023-03-12T03:01:55.088Z,20.10
2023-03-12T03:04:24.800Z,24.80
2023-03-12T03:06:52.858Z,24.20
2023-03-12T03:09:22.438Z,22.60
2023-03-12T03:11:50.889Z,24.70
2023-03-12T03:14:19.361Z,23.30
2023-03-12T03:16:49.264Z,22.50
2023-03-12T03:19:17.779Z,20.70
2023-03-12T03:21:45.905Z,21.20
2023-03-12T03:24:13.857Z,23.00
2023-03-12T03:26:41.725Z,22.30
2023-03-12T03:29:10.081Z,24.40
2023-03-12T03:31:38.024Z,24.70
2023-03-12T03:34:06.178Z,20.80
2023-03-12T03:36:34.268Z,18.30
2023-03-12T03:39:05.843Z,24.50
2023-03-12T03:41:34.729Z,18.40
2023-03-12T03:44:02.644Z,23.80
2023-03-12T03:46:31.401Z,20.80
2023-03-12T03:49:03.647Z,19.90
2023-03-12T03:51:32.207Z,20.30
2023-03-12T03:54:04.568Z,22.70
2023-03-12T03:56:32.712Z,27.70
2023-03-12T03:59:02.077Z,28.50
2023-03-12T04:01:31.548Z,23.20
2023-03-12T04:04:00.297Z,30.50
2023-03-12T04:06:29.861Z,19.10
2023-03-12T04:08:59.128Z,23.00
2023-03-12T04:11:27.437Z,23.10
2023-03-12T04:13:57.659Z,31.40
2023-03-12T04:16:27.074Z,34.10
2023-03-12T04:18:55.385Z,27.10
2023-03-12T04:21:23.925Z,19.80
2023-03-12T04:23:52.385Z,23.00
2023-03-12T04:26:22.346Z,23.50
2023-03-12T04:28:50.248Z,26.10
2023-03-12T04:31:18.206Z,31.30
2023-03-12T04:33:50.882Z,30.40
2023-03-12T04:36:19.511Z,25.00
2023-03-12T04:38:49.867Z,31.10
2023-03-12T04:41:19.167Z,35.70
2023-03-12T04:46:19.012Z,25.00
2023-03-12T04:48:46.906Z,29.60
2023-03-12T04:51:14.969Z,25.70
2023-03-12T04:53:43.350Z,29.10
2023-03-12T04:56:12.915Z,25.40
2023-03-12T04:58:40.900Z,28.20
2023-03-12T05:01:30.320Z,27.30
2023-03-12T05:03:58.779Z,28.80
2023-03-12T05:06:27.094Z,27.00
2023-03-12T05:08:57.433Z,26.40
2023-03-12T05:11:26.065Z,29.80
2023-03-12T05:13:53.868Z,27.80
2023-03-12T05:16:21.915Z,33.40
2023-03-12T05:18:49.990Z,27.20
2023-03-12T05:21:20.761Z,39.00
2023-03-12T05:23:49.502Z,25.90
2023-03-12T05:26:18.892Z,27.90
2023-03-12T05:28:47.487Z,36.90
2023-03-12T05:31:16.854Z,38.20
2023-03-12T05:33:46.716Z,37.40
2023-03-12T05:36:16.364Z,33.20
2023-03-12T05:38:47.924Z,31.30
2023-03-12T05:41:26.806Z,34.30
2023-03-12T05:43:58.245Z,30.60
2023-03-12T05:46:28.130Z,34.90
2023-03-12T05:48:56.244Z,28.60
2023-03-12T05:51:24.318Z,26.40
2023-03-12T05:53:52.681Z,31.30
2023-03-12T05:56:20.814Z,31.90
2023-03-12T05:58:49.973Z,27.80
2023-03-12T06:01:25.282Z,33.90
2023-03-12T06:03:55.406Z,30.40
2023-03-12T06:06:25.417Z,32.00
2023-03-12T06:08:53.650Z,24.30
2023-03-12T06:11:21.748Z,33.80
2023-03-12T06:13:49.681Z,30.80
2023-03-12T06:16:24.017Z,30.10
2023-03-12T06:19:03.337Z,37.90
2023-03-12T06:21:35.285Z,27.00
2023-03-12T06:24:04.907Z,33.30
2023-03-12T06:26:44.158Z,31.90
2023-03-12T06:29:12.198Z,31.90
2023-03-12T06:31:42.081Z,26.40
2023-03-12T06:34:10.433Z,22.90
2023-03-12T06:36:38.448Z,29.60
2023-03-12T06:39:06.492Z,27.10
2023-03-12T06:41:34.585Z,31.20
2023-03-12T06:44:05.982Z,30.80
2023-03-12T06:49:02.298Z,31.90
2023-03-12T06:51:30.186Z,24.70
2023-03-12T06:53:58.062Z,28.00
2023-03-12T06:56:25.845Z,29.40
2023-03-12T06:58:53.653Z,30.10
2023-03-12T07:01:22.604Z,32.50
2023-03-12T07:03:50.559Z,29.70
2023-03-12T07:06:21.908Z,34.80
2023-03-12T07:08:51.335Z,27.00
2023-03-12T07:11:19.222Z,26.10
2023-03-12T07:13:47.739Z,31.10
2023-03-12T07:16:15.706Z,33.80
2023-03-12T07:18:43.723Z,29.60
2023-03-12T07:21:11.528Z,31.50
2023-03-12T07:23:39.383Z,25.00
2023-03-12T07:26:07.879Z,27.50
2023-03-12T07:28:35.758Z,25.60
2023-03-12T07:31:05.168Z,29.40
2023-03-12T07:33:34.529Z,26.30
2023-03-12T07:36:03.445Z,28.00
2023-03-12T07:38:32.025Z,32.40
2023-03-12T07:41:00.924Z,31.50
2023-03-12T07:43:29.105Z,28.30
2023-03-12T07:45:57.058Z,26.20
2023-03-12T07:48:24.976Z,26.00
2023-03-12T07:50:52.993Z,31.00
2023-03-12T07:53:21.022Z,36.50
2023-03-12T07:55:49.058Z,30.00
2023-03-12T07:58:17.893Z,28.30
2023-03-12T08:00:46.592Z,27.30
2023-03-12T08:03:14.684Z,28.80
2023-03-12T08:05:43.007Z,29.90
2023-03-12T08:08:11.087Z,29.70
2023-03-12T08:10:39.162Z,28.30
2023-03-12T08:13:07.062Z,25.20
2023-03-12T08:15:35.012Z,26.70
2023-03-12T08:18:02.884Z,24.30
2023-03-12T08:20:30.666Z,24.20
2023-03-12T08:22:58.507Z,27.50
2023-03-12T08:25:26.654Z,29.10
2023-03-12T08:27:54.827Z,24.30
2023-03-12T08:30:22.721Z,25.80
2023-03-12T08:32:50.593Z,23.00
2023-03-12T08:35:18.500Z,24.40
2023-03-12T08:37:46.375Z,23.10
2023-03-12T08:40:14.603Z,23.80
2023-03-12T08:42:46.069Z,26.30
2023-03-12T08:47:44.587Z,26.50
2023-03-12T08:50:16.716Z,24.30
2023-03-12T08:52:44.756Z,25.80
2023-03-12T08:55:12.874Z,25.10
2023-03-12T08:57:41.330Z,23.50
2023-03-12T09:00:14.983Z,16.40
2023-03-12T09:02:47.189Z,23.70
2023-03-12T09:05:15.475Z,20.50
2023-03-12T09:07:43.377Z,21.50
2023-03-12T09:10:11.644Z,22.90
2023-03-12T09:12:39.618Z,23.90
2023-03-12T09:15:09.100Z,22.50
2023-03-12T09:17:38.778Z,21.40
2023-03-12T09:20:09.424Z,22.60
2023-03-12T09:22:37.474Z,16.80
2023-03-12T09:25:08.843Z,20.80
2023-03-12T09:27:43.250Z,18.00
2023-03-12T09:30:17.254Z,19.30
2023-03-12T09:32:46.174Z,20.30
2023-03-12T09:35:16.233Z,18.50
2023-03-12T09:37:48.507Z,23.70
2023-03-12T09:40:29.084Z,21.40
2023-03-12T09:43:13.887Z,20.10
2023-03-12T09:45:47.543Z,18.90
2023-03-12T09:48:37.536Z,20.20
2023-03-12T09:51:41.164Z,18.70
2023-03-12T09:54:55.466Z,19.50
2023-03-12T09:57:26.648Z,16.40
2023-03-12T09:59:54.585Z,15.90
2023-03-12T10:02:42.692Z,22.70
2023-03-12T10:05:35.434Z,25.90
2023-03-12T10:08:51.170Z,17.00
2023-03-12T10:12:19.927Z,18.20
2023-03-12T10:15:26.107Z,14.70
2023-03-12T10:18:20.949Z,16.10
2023-03-12T10:21:07.639Z,18.20
2023-03-12T10:24:06.161Z,16.00
2023-03-12T10:26:50.714Z,15.80
2023-03-12T10:29:29.417Z,19.20
2023-03-12T10:32:16.879Z,16.50
2023-03-12T10:35:13.055Z,23.20
2023-03-12T10:38:09.863Z,20.00
2023-03-12T10:40:39.197Z,20.30
2023-03-12T10:43:07.467Z,16.90
2023-03-12T10:46:05.985Z,21.50
2023-03-12T10:48:33.837Z,19.50
2023-03-12T10:51:09.214Z,17.40
2023-03-12T10:53:44.742Z,18.40
2023-03-12T10:56:17.585Z,23.60
2023-03-12T10:58:52.383Z,17.50
2023-03-12T11:01:26.583Z,17.20
2023-03-12T11:04:17.745Z,20.00
2023-03-12T11:07:04.066Z,18.30
2023-03-12T11:09:31.911Z,22.20
2023-03-12T11:11:59.973Z,16.00
2023-03-12T11:14:30.152Z,22.00
2023-03-12T11:17:24.392Z,19.60
2023-03-12T11:19:52.470Z,19.80
2023-03-12T11:22:35.256Z,22.70
2023-03-12T11:25:20.149Z,19.70
2023-03-12T11:27:56.788Z,22.00
2023-03-12T11:30:35.390Z,21.30
2023-03-12T11:33:04.158Z,20.00
2023-03-12T11:35:39.952Z,17.30
2023-03-12T11:38:21.498Z,21.40
2023-03-12T11:41:12.601Z,21.10
2023-03-12T11:44:13.629Z,20.00
2023-03-12T11:47:05.310Z,19.20
2023-03-12T11:52:46.735Z,20.90
2023-03-12T11:56:19.738Z,19.90
2023-03-12T11:59:35.352Z,23.70
2023-03-12T12:02:59.703Z,24.10
2023-03-12T12:06:04.406Z,19.60
2023-03-12T12:08:57.637Z,19.90
2023-03-12T12:11:51.180Z,16.80
2023-03-12T12:14:40.873Z,20.30
2023-03-12T12:17:11.763Z,19.50
2023-03-12T12:20:11.330Z,16.90
2023-03-12T12:23:03.452Z,18.00
2023-03-12T12:25:41.321Z,21.40
2023-03-12T12:28:54.497Z,18.90
2023-03-12T12:31:38.093Z,21.60
2023-03-12T12:35:04.967Z,18.40
2023-03-12T12:38:14.644Z,21.70
2023-03-12T12:40:55.563Z,16.50
2023-03-12T12:43:42.661Z,23.70
2023-03-12T12:46:24.790Z,18.20
2023-03-12T12:49:17.393Z,20.60
2023-03-12T12:51:55.865Z,19.70
2023-03-12T12:54:30.784Z,17.50
2023-03-12T12:57:25.263Z,17.60
2023-03-12T13:00:23.914Z,22.40
2023-03-12T13:02:56.223Z,27.80
2023-03-12T13:05:36.473Z,19.20
2023-03-12T13:08:08.743Z,24.30
2023-03-12T13:10:36.609Z,16.80
2023-03-12T13:13:18.082Z,16.90
2023-03-12T13:15:47.627Z,14.70
2023-03-12T13:18:26.252Z,16.00
2023-03-12T13:20:54.071Z,13.90
2023-03-12T13:23:45.221Z,15.10
2023-03-12T13:26:46.757Z,18.70
2023-03-12T13:29:29.818Z,13.00
2023-03-12T13:31:57.999Z,14.50
2023-03-12T13:34:46.260Z,11.40
2023-03-12T13:37:46.595Z,16.20
2023-03-12T13:40:29.412Z,15.30
2023-03-12T13:43:10.087Z,16.00
2023-03-12T13:45:41.311Z,22.10
2023-03-12T13:48:19.601Z,14.60
2023-03-12T13:50:58.892Z,17.20
2023-03-12T13:53:40.631Z,18.90
2023-03-12T13:56:19.224Z,16.70
2023-03-12T13:59:14.452Z,16.70
2023-03-12T14:01:50.436Z,15.30
2023-03-12T14:04:24.906Z,14.30
2023-03-12T14:07:30.024Z,16.20
2023-03-12T14:10:15.823Z,18.20
2023-03-12T14:13:17.490Z,13.50
2023-03-12T14:18:26.876Z,12.90
2023-03-12T14:21:07.038Z,9.90
2023-03-12T14:23:44.145Z,10.80
2023-03-12T14:26:42.033Z,20.70
2023-03-12T14:29:45.213Z,8.60
2023-03-12T14:32:20.976Z,11.90
2023-03-12T14:35:06.613Z,11.40
2023-03-12T14:37:46.718Z,10.60
2023-03-12T14:40:23.913Z,10.20
2023-03-12T14:42:51.756Z,11.20
2023-03-12T14:45:27.148Z,8.30
2023-03-12T14:47:58.685Z,10.60
2023-03-12T14:50:40.274Z,9.30
2023-03-12T14:53:31.469Z,9.00
2023-03-12T14:56:24.801Z,8.80
2023-03-12T14:58:52.623Z,6.70
2023-03-12T15:01:26.023Z,7.60
2023-03-12T15:04:01.268Z,9.10
2023-03-12T15:06:47.081Z,9.20
2023-03-12T15:09:22.243Z,11.20
2023-03-12T15:12:18.862Z,13.80
2023-03-12T15:14:49.284Z,9.90
2023-03-12T15:17:22.006Z,14.40
2023-03-12T15:19:50.903Z,12.20
2023-03-12T15:22:25.754Z,13.20
2023-03-12T15:24:54.345Z,14.20
2023-03-12T15:27:22.169Z,12.40
2023-03-12T15:29:51.095Z,10.80
2023-03-12T15:32:22.625Z,15.90
2023-03-12T15:34:59.076Z,10.80
2023-03-12T15:37:41.131Z,7.00
2023-03-12T15:40:25.679Z,9.50
2023-03-12T15:42:59.167Z,12.80
2023-03-12T15:45:38.800Z,10.60
2023-03-12T15:48:26.593Z,11.20
2023-03-12T15:50:54.724Z,7.70
2023-03-12T15:53:23.108Z,6.50
2023-03-12T15:56:09.493Z,6.50
2023-03-12T15:58:41.223Z,7.20
2023-03-12T16:01:18.772Z,8.80
2023-03-12T16:03:46.757Z,7.20
2023-03-12T16:06:25.485Z,6.30
2023-03-12T16:08:59.093Z,5.90
2023-03-12T16:11:31.362Z,4.70
2023-03-12T16:14:13.471Z,5.50
2023-03-12T16:16:41.266Z,5.00
2023-03-12T16:19:22.491Z,4.70
2023-03-12T16:21:50.954Z,5.90
2023-03-12T16:24:18.808Z,7.10
2023-03-12T16:26:53.258Z,3.70
2023-03-12T16:29:23.150Z,3.50
2023-03-12T16:31:56.314Z,3.90
2023-03-12T16:34:24.639Z,4.00
2023-03-12T16:36:52.629Z,3.00
2023-03-12T16:39:20.989Z,5.30
2023-03-12T16:41:48.820Z,5.10
2023-03-12T16:44:21.914Z,3.40
2023-03-12T16:46:49.877Z,5.90
2023-03-12T16:49:20.009Z,4.90
2023-03-12T16:51:48.077Z,1.90
2023-03-12T16:54:15.899Z,3.40
2023-03-12T16:56:48.780Z,7.60
2023-03-12T16:59:31.783Z,6.30
2023-03-12T17:01:59.905Z,5.30
2023-03-12T17:04:27.769Z,4.80
2023-03-12T17:06:55.739Z,7.90
2023-03-12T17:09:24.770Z,4.50
2023-03-12T17:11:52.662Z,5.70
2023-03-12T17:14:22.997Z,6.90
2023-03-12T17:16:51.239Z,9.00
2023-03-12T17:19:19.265Z,8.60
2023-03-12T17:21:49.314Z,6.40
2023-03-12T17:24:17.840Z,6.40
2023-03-12T17:26:46.445Z,7.30
2023-03-12T17:29:14.223Z,7.80
2023-03-12T17:31:41.993Z,10.40
2023-03-12T17:34:09.951Z,9.80
2023-03-12T17:36:38.416Z,10.00
2023-03-12T17:39:06.382Z,6.80
2023-03-12T17:41:34.357Z,12.40
2023-03-12T17:44:03.744Z,8.70
2023-03-12T17:46:31.698Z,10.80
2023-03-12T17:48:59.633Z,8.30
2023-03-12T17:51:27.477Z,8.00
2023-03-12T17:53:55.569Z,9.40
2023-03-12T17:56:23.750Z,7.30
2023-03-12T17:58:51.930Z,9.60
2023-03-12T18:01:20.035Z,9.10
2023-03-12T18:03:50.004Z,14.40
2023-03-12T18:06:19.770Z,7.50
2023-03-12T18:08:47.787Z,9.20
2023-03-12T18:11:15.754Z,6.00
2023-03-12T18:13:43.540Z,8.70
2023-03-12T18:16:11.636Z,8.00
2023-03-12T18:18:39.672Z,8.10
2023-03-12T18:21:07.546Z,6.40
2023-03-12T18:23:35.435Z,8.90
2023-03-12T18:26:04.668Z,12.80
2023-03-12T18:28:32.719Z,15.30
2023-03-12T18:31:00.519Z,10.00
2023-03-12T18:33:28.393Z,17.30
2023-03-12T18:35:56.841Z,19.30
2023-03-12T18:38:24.745Z,8.00
2023-03-12T18:40:53.741Z,11.50
2023-03-12T18:43:22.072Z,8.10
2023-03-12T18:45:50.132Z,14.00
2023-03-12T18:48:18.005Z,9.20
2023-03-12T18:50:45.759Z,8.50
2023-03-12T18:53:13.512Z,10.40
2023-03-12T18:55:41.372Z,12.40
2023-03-12T18:58:09.184Z,7.40
2023-03-12T19:00:37.032Z,8.00
2023-03-12T19:03:05.115Z,7.70
2023-03-12T19:05:33.428Z,8.00
2023-03-12T19:08:02.505Z,7.00
2023-03-12T19:10:30.320Z,7.70
2023-03-12T19:12:59.092Z,5.90
2023-03-12T19:15:27.597Z,11.10
2023-03-12T19:17:55.405Z,7.50
2023-03-12T19:20:23.387Z,7.90
2023-03-12T19:22:51.281Z,7.60
2023-03-12T19:25:20.421Z,6.60
2023-03-12T19:27:48.602Z,8.50
2023-03-12T19:30:16.564Z,7.60
2023-03-12T19:32:44.886Z,9.90
2023-03-12T19:35:14.995Z,7.80
2023-03-12T19:37:42.951Z,9.70
2023-03-12T19:40:13.277Z,7.20
2023-03-12T19:42:41.350Z,7.40
2023-03-12T19:45:10.736Z,9.40
2023-03-12T19:47:38.645Z,9.30
2023-03-12T19:50:09.263Z,8.80
2023-03-12T19:52:37.522Z,5.20
2023-03-12T19:55:05.985Z,8.20
2023-03-12T19:57:34.261Z,7.20
2023-03-12T20:00:02.534Z,5.40
2023-03-12T20:02:32.372Z,8.40
2023-03-12T20:05:00.390Z,8.20
2023-03-12T20:07:28.190Z,6.50
2023-03-12T20:09:56.602Z,9.90
2023-03-12T20:12:24.963Z,10.20
2023-03-12T20:14:52.843Z,8.00
2023-03-12T20:17:20.975Z,9.70
2023-03-12T20:19:48.832Z,8.40
2023-03-12T20:22:16.629Z,6.50
2023-03-12T20:24:44.708Z,6.90
2023-03-12T20:27:12.532Z,6.40
2023-03-12T20:29:40.329Z,5.10
2023-03-12T20:32:08.156Z,8.70
2023-03-12T20:34:37.390Z,8.30
2023-03-12T20:37:05.401Z,5.40
2023-03-12T20:39:33.159Z,7.10
2023-03-12T20:42:01.009Z,4.80
2023-03-12T20:44:28.810Z,6.40
2023-03-12T20:46:57.645Z,5.40
2023-03-12T20:49:25.663Z,4.60
2023-03-12T20:51:53.564Z,5.20
2023-03-12T20:54:21.632Z,5.50
2023-03-12T20:56:49.429Z,4.50
2023-03-12T20:59:17.327Z,5.40
2023-03-12T21:01:45.331Z,4.00
2023-03-12T21:04:13.252Z,4.10
2023-03-12T21:06:41.144Z,3.80
2023-03-12T21:09:09.041Z,4.20
2023-03-12T21:11:39.335Z,4.70
2023-03-12T21:14:07.105Z,3.50
2023-03-12T21:16:35.130Z,3.40
2023-03-12T21:19:03.005Z,2.30
2023-03-12T21:21:32.134Z,2.10
2023-03-12T21:24:00.613Z,1.40
2023-03-12T21:26:28.867Z,1.60
2023-03-12T21:28:56.702Z,1.80
2023-03-12T21:31:26.674Z,1.50
2023-03-12T21:33:56.201Z,1.10
2023-03-12T21:36:25.766Z,1.30
2023-03-12T21:38:53.793Z,1.40
2023-03-12T21:41:21.859Z,1.90
2023-03-12T21:43:49.668Z,3.40
2023-03-12T21:46:26.825Z,1.30
2023-03-12T21:48:54.868Z,2.20
2023-03-12T21:51:25.968Z,1.50
2023-03-12T21:53:56.394Z,2.20
2023-03-12T21:56:30.225Z,2.90
2023-03-12T21:58:58.824Z,1.20
2023-03-12T22:01:27.162Z,1.90
2023-03-12T22:03:55.385Z,1.80
2023-03-12T22:06:23.324Z,2.80
2023-03-12T22:08:52.317Z,1.60
2023-03-12T22:11:20.124Z,2.30
2023-03-12T22:13:48.676Z,1.10
2023-03-12T22:16:17.085Z,2.70
2023-03-12T22:18:46.544Z,3.70
2023-03-12T22:21:19.320Z,1.40
2023-03-12T22:23:48.465Z,2.00
2023-03-12T22:26:17.239Z,2.30
2023-03-12T22:28:54.859Z,2.00
2023-03-12T22:31:26.976Z,2.80
2023-03-12T22:33:56.197Z,2.90
2023-03-12T22:36:24.504Z,2.30
2023-03-12T22:38:53.102Z,4.30
2023-03-12T22:41:29.140Z,2.50
2023-03-12T22:44:03.348Z,4.40
2023-03-12T22:46:32.073Z,4.40
2023-03-12T22:49:02.288Z,3.80
2023-03-12T22:51:32.208Z,2.70
2023-03-12T22:54:00.481Z,2.70
2023-03-12T22:56:29.052Z,3.10
2023-03-12T22:58:56.923Z,2.10
2023-03-12T23:01:25.457Z,3.30
2023-03-12T23:03:53.831Z,3.10
2023-03-12T23:06:27.760Z,2.00
2023-03-12T23:08:56.553Z,4.00
2023-03-12T23:11:29.546Z,3.40
2023-03-12T23:13:57.385Z,4.10
2023-03-12T23:16:26.759Z,3.50
2023-03-12T23:18:56.401Z,4.00
2023-03-12T23:21:25.433Z,3.70
2023-03-12T23:23:54.005Z,3.30
2023-03-12T23:26:26.713Z,1.80
2023-03-12T23:28:56.311Z,3.30
2023-03-12T23:31:27.418Z,4.10
2023-03-12T23:33:56.759Z,3.40
2023-03-12T23:36:24.775Z,5.20
2023-03-12T23:38:52.713Z,4.00
2023-03-12T23:41:29.223Z,5.90
2023-03-12T23:43:58.818Z,4.50
2023-03-12T23:46:27.405Z,5.70
2023-03-12T23:48:55.555Z,4.10
2023-03-12T23:51:27.396Z,6.80
2023-03-12T23:53:59.699Z,4.60
2023-03-12T23:56:34.477Z,4.50
2023-03-12T23:59:04.545Z,6.30
